Impacts TAF Board INFO
FOR SITUATIONAL AWARENESS. NOT TO BE USED FOR FLIGHT PLANNING PURPOSES.
IDs:

KJFK - New York/Kennedy Int, NY, US

Issued at 0212 UTC 13 Dec 2017
Updated at 0339 UTC 13 Dec 2017
Potential Impact None Slight Moderate High
Time0251Z 13/04Z 13/05Z 13/06Z 13/07Z 13/08Z 13/09Z 13/10Z 13/11Z 13/12Z 13/13Z 13/14Z 13/15Z 13/16Z>>
Type OBS PRVL PRVL PRVL PRVL PRVL PRVL PRVL PRVL PRVL PRVL PRVL PRVL PRVL
VIS 10 >6 >6 >6 >6 >6 >6 >6 >6 >6 >6 >6 >6 >6
CIG -- 80 100 100 100 100 100 100 100 100 50 50 50 50
Cover FEW BKN BKN BKN BKN BKN BKN BKN BKN BKN BKN BKN BKN BKN
FltCat VFR VFR VFR VFR VFR VFR VFR VFR VFR VFR VFR VFR VFR VFR
WX -- VCSH -- -- -- -- -- -- -- -- -- -- -- --
WDir 310 300 280 280 280 280 280 280 280 280 280 280 280 280
WSpd 20 20 22 22 22 22 22 22 22 22 25 25 25 25
WGst 29 30 34 34 34 34 34 34 34 34 35 35 35 35

Raw TAF
KJFK 130212Z 1302/1406 30020G30KT P6SM VCSH FEW030 SCT050 BKN080
  FM130500 28022G34KT P6SM SCT050 BKN100
  FM131300 28025G35KT P6SM BKN050
  FM132100 27021G30KT P6SM SCT050 BKN200
  FM140100 26017G25KT P6SM BKN050 BKN100


Raw METAR
KJFK 130251Z 31020G29KT 10SM FEW048 FEW110 01/M08 A2943 RMK AO2 PK WND 31032/0234 SLP966 60000 T00111078 58007
KJFK 130151Z 30021G29KT 10SM FEW034 BKN110 02/M04 A2945 RMK AO2 PK WND 29033/0058 RAE15SNB0059E08 SLP972 P0000 T00221044
KJFK 130051Z 29024G35KT 10SM -RA FEW026 BKN034 OVC042 03/M01 A2948 RMK AO2 PK WND 29035/0044 RAB43 PRESRR SLP981 P0000 T00331006

METAR Board
Radar Display
Forecast Discussion

FOR SITUATIONAL AWARENESS. NOT TO BE USED FOR FLIGHT PLANNING PURPOSES.